Arad, România

07:50 AM EEST on august 20, 2014 (GMT +0300)
Arad | Change Station
CLOSE
Current Station
Aeroport
Location: Arad,
Elevation: 351 ft
Nearby Weather Stations

Elev 351 ft 46.18 °N, 21.26 °E | Updated 20 minutes ago

Clear
Cer senin
64 °F
Feels Like 64 °F
N
7
Vânt variabil Vânt from SE

astăzi
High -- | Low -- °F
--% Chance of Precip.
Ieri
High -- | Low -- °F
Precip. -- inch
6:39 AM 8:35 PM
Semilună în descreştere, 24% visible
Presiunea 29.95 inch
Vizibilitatea -9999.0 mile
Nori
Punctul de rouă 64 °F
Umiditatea 100%
Precipitaţii 0.00 inch
Adâncimea zăpezii Not available.
UV Not available.
Pollen Not available.
Calitatea aerului Not available.
Flu Activity Not available.
METAR LRAR 200430Z 13006KT CAVOK 18/18 Q1014

More Conditions Fewer Conditions

Presiunea 29.95 inch
Vizibilitatea -9999.0 mile
Nori
Punctul de rouă 64 °F
Umiditatea 100%
Precipitaţii 0.00 inch
Adâncimea zăpezii Not available.
UV Not available.
Pollen Not available.
Calitatea aerului Not available.
Flu Activity Not available.
METAR LRAR 200430Z 13006KT CAVOK 18/18 Q1014

More Conditions Fewer Conditions

10-Day Weather Forecast

Almanac

Astronomie

Aug. 20, 2014 Răsărit Apus
Timpul Actual 6:39 AM EEST 8:35 PM EEST
Crepusculul Civil 6:07 AM EEST 9:08 PM EEST
Crepusculul nautic 5:28 AM EEST 9:47 PM EEST
Răsărit Astronomic 4:44 AM EEST 10:30 PM EEST
Luna 1:58 AM EEST 5:12 PM EEST
Durata zilei lumină 15h 00m
Lungimea zilei
13h 55m
Tomorrow will be 3m 1s shorter.
Semilună în descreştere, 24% of the Moon is Illuminated
astăzi
Semilună în descreştere
Aug 25
New
Sep 2
Primul pătrar
Sep 8
Lună plină
Sep 15
Ultimul pătrar

Yesterday's Extremes

Country Highs Country Lows

Community

WunderPhotos

Upload Photos

1,745,585 photos uploaded!

Nearby

Calitatea aerului

Not available.

Adâncimea zapezii

Not available.

Earthquake Activity

Oraş Distance Mag. Time & Date
No recent earthquake activity has been reported nearby.
Minimum magnitude displayed is 2.5.

Coastal Water Temperatures

Locul Temperatura
No Stations Reporting

Nearby Weather Stations